createdAt,value
2018-08-11T00:00:44.045Z,1013.2
2018-08-11T00:01:52.949Z,1013.21
2018-08-11T00:03:01.600Z,1013.24
2018-08-11T00:04:10.235Z,1013.19
2018-08-11T00:05:18.889Z,1013.15
2018-08-11T00:06:27.533Z,1013.18
2018-08-11T00:07:36.181Z,1013.19
2018-08-11T00:08:44.826Z,1013.16
2018-08-11T00:09:53.475Z,1013.16
2018-08-11T00:11:02.125Z,1013.17
2018-08-11T00:12:10.773Z,1013.16
2018-08-11T00:13:19.424Z,1013.16
2018-08-11T00:14:28.064Z,1013.16
2018-08-11T00:15:36.711Z,1013.15
2018-08-11T00:16:45.358Z,1013.14
2018-08-11T00:17:54.009Z,1013.15
2018-08-11T00:19:02.650Z,1013.16
2018-08-11T00:20:11.298Z,1013.14
2018-08-11T00:21:19.942Z,1013.15
2018-08-11T00:22:28.593Z,1013.13
2018-08-11T00:23:37.234Z,1013.15
2018-08-11T00:24:45.883Z,1013.15
2018-08-11T00:25:54.791Z,1013.14
2018-08-11T00:27:03.704Z,1013.16
2018-08-11T00:28:12.352Z,1013.15
2018-08-11T00:29:20.995Z,1013.18
2018-08-11T00:30:29.639Z,1013.16
2018-08-11T00:31:38.282Z,1013.22
2018-08-11T00:32:46.932Z,1013.25
2018-08-11T00:33:55.578Z,1013.22
2018-08-11T00:35:04.224Z,1013.2
2018-08-11T00:36:12.865Z,1013.26
2018-08-11T00:37:21.824Z,1013.27
2018-08-11T00:38:30.731Z,1013.27
2018-08-11T00:39:39.377Z,1013.3
2018-08-11T00:40:48.017Z,1013.38
2018-08-11T00:41:56.936Z,1013.36
2018-08-11T00:43:05.578Z,1013.45
2018-08-11T00:44:14.229Z,1013.45
2018-08-11T00:45:22.862Z,1013.53
2018-08-11T00:46:31.511Z,1013.48
2018-08-11T00:47:40.161Z,1013.49
2018-08-11T00:48:48.810Z,1013.46
2018-08-11T00:49:57.459Z,1013.47
2018-08-11T00:51:06.096Z,1013.49
2018-08-11T00:52:14.748Z,1013.48
2018-08-11T00:53:23.390Z,1013.5
2018-08-11T00:54:32.045Z,1013.51
2018-08-11T00:55:40.681Z,1013.51
2018-08-11T00:56:49.593Z,1013.53
2018-08-11T00:57:58.237Z,1013.56
2018-08-11T00:59:06.889Z,1013.59
2018-08-11T01:00:15.784Z,1013.62
2018-08-11T01:01:24.455Z,1013.68
2018-08-11T01:02:33.338Z,1013.7
2018-08-11T01:03:41.997Z,1013.82
2018-08-11T01:04:50.645Z,1013.82
2018-08-11T01:05:59.277Z,1013.88
2018-08-11T01:07:07.921Z,1013.86
2018-08-11T01:08:16.563Z,1013.87
2018-08-11T01:09:25.483Z,1013.85
2018-08-11T01:10:34.124Z,1013.82
2018-08-11T01:11:42.777Z,1013.85
2018-08-11T01:12:51.411Z,1013.85
2018-08-11T01:14:00.336Z,1013.87
2018-08-11T01:15:09.236Z,1013.84
2018-08-11T01:16:17.889Z,1013.88
2018-08-11T01:17:26.531Z,1013.85
2018-08-11T01:18:35.184Z,1013.84
2018-08-11T01:19:43.829Z,1013.81
2018-08-11T01:20:52.480Z,1013.86
2018-08-11T01:22:01.122Z,1013.88
2018-08-11T01:23:10.029Z,1013.86
2018-08-11T01:24:18.678Z,1013.88
2018-08-11T01:25:27.329Z,1013.95
2018-08-11T01:26:35.974Z,1014.04
2018-08-11T01:27:44.610Z,1014.01
2018-08-11T01:28:53.799Z,1014.01
2018-08-11T01:30:02.440Z,1013.97
2018-08-11T01:31:11.095Z,1014.02
2018-08-11T01:32:19.732Z,1014.02
2018-08-11T01:33:28.385Z,1014.04
2018-08-11T01:34:37.020Z,1014.12
2018-08-11T01:35:45.674Z,1014.15
2018-08-11T01:36:54.310Z,1014.15
2018-08-11T01:38:02.954Z,1014.22
2018-08-11T01:39:11.605Z,1014.29
2018-08-11T01:40:20.241Z,1014.28
2018-08-11T01:41:28.889Z,1014.26
2018-08-11T01:42:37.539Z,1014.31
2018-08-11T01:43:46.180Z,1014.31
2018-08-11T01:44:54.828Z,1014.27
2018-08-11T01:46:03.728Z,1014.3
2018-08-11T01:47:12.375Z,1014.38
2018-08-11T01:48:21.013Z,1014.31
2018-08-11T01:49:29.672Z,1014.34
2018-08-11T01:50:38.567Z,1014.38
2018-08-11T01:51:47.483Z,1014.41
2018-08-11T01:52:56.126Z,1014.41
2018-08-11T01:54:05.054Z,1014.41
2018-08-11T01:55:13.689Z,1014.32
2018-08-11T01:56:22.337Z,1014.32
2018-08-11T01:57:30.984Z,1014.35
2018-08-11T01:58:39.636Z,1014.33
2018-08-11T01:59:48.280Z,1014.32
2018-08-11T02:00:56.918Z,1014.31
2018-08-11T02:02:05.559Z,1014.2
2018-08-11T02:03:14.202Z,1014.06
2018-08-11T02:04:22.855Z,1013.99
2018-08-11T02:05:31.496Z,1013.98
2018-08-11T02:06:40.142Z,1013.99
2018-08-11T02:07:48.777Z,1014.07
2018-08-11T02:08:57.431Z,1014.04
2018-08-11T02:10:06.071Z,1014
2018-08-11T02:11:14.743Z,1013.82
2018-08-11T02:12:23.354Z,1013.83
2018-08-11T02:13:32.007Z,1014.04
2018-08-11T02:14:40.911Z,1013.98
2018-08-11T02:15:49.560Z,1013.83
2018-08-11T02:16:58.193Z,1013.71
2018-08-11T02:18:06.839Z,1013.69
2018-08-11T02:19:15.494Z,1013.76
2018-08-11T02:20:24.135Z,1013.83
2018-08-11T02:21:32.783Z,1013.9
2018-08-11T02:22:41.419Z,1013.9
2018-08-11T02:23:50.334Z,1013.9
2018-08-11T02:24:58.974Z,1013.93
2018-08-11T02:26:07.891Z,1014
2018-08-11T02:27:16.527Z,1014.16
2018-08-11T02:28:25.173Z,1014.25
2018-08-11T02:29:33.812Z,1014.2
2018-08-11T02:30:42.466Z,1014.18
2018-08-11T02:31:51.101Z,1014.1
2018-08-11T02:32:59.751Z,1014.05
2018-08-11T02:34:08.436Z,1014.12
2018-08-11T02:35:17.056Z,1014.08
2018-08-11T02:36:26.235Z,1014.09
2018-08-11T02:37:34.883Z,1014.07
2018-08-11T02:38:43.530Z,1013.97
2018-08-11T02:39:52.174Z,1013.93
2018-08-11T02:41:01.093Z,1013.96
2018-08-11T02:42:10.012Z,1013.92
2018-08-11T02:43:18.647Z,1013.94
2018-08-11T02:44:27.297Z,1013.93
2018-08-11T02:45:35.948Z,1013.95
2018-08-11T02:46:44.858Z,1013.94
2018-08-11T02:47:53.502Z,1013.94
2018-08-11T02:49:02.141Z,1013.91
2018-08-11T02:50:11.070Z,1013.96
2018-08-11T02:51:19.699Z,1014.01
2018-08-11T02:52:28.351Z,1014.08
2018-08-11T02:53:36.990Z,1014.06
2018-08-11T02:54:45.902Z,1014.08
2018-08-11T02:55:54.810Z,1014.1
2018-08-11T02:57:03.727Z,1014.1
2018-08-11T02:58:12.377Z,1014.15
2018-08-11T02:59:21.015Z,1014.16
2018-08-11T03:00:29.948Z,1014.18
2018-08-11T03:01:38.594Z,1014.2
2018-08-11T03:02:47.514Z,1014.21
2018-08-11T03:03:56.685Z,1014.18
2018-08-11T03:05:05.328Z,1014.22
2018-08-11T03:06:14.251Z,1014.2
2018-08-11T03:07:22.902Z,1014.18
2018-08-11T03:08:31.537Z,1014.19
2018-08-11T03:09:40.188Z,1014.24
2018-08-11T03:10:48.832Z,1014.23
2018-08-11T03:11:57.741Z,1014.25
2018-08-11T03:13:06.646Z,1014.28
2018-08-11T03:14:15.292Z,1014.25
2018-08-11T03:15:24.202Z,1014.24
2018-08-11T03:16:33.106Z,1014.24
2018-08-11T03:17:42.029Z,1014.29
2018-08-11T03:18:51.198Z,1014.26
2018-08-11T03:19:59.847Z,1014.27
2018-08-11T03:21:08.487Z,1014.31
2018-08-11T03:22:17.135Z,1014.33
2018-08-11T03:23:26.044Z,1014.31
2018-08-11T03:24:34.953Z,1014.3
2018-08-11T03:25:43.593Z,1014.33
2018-08-11T03:26:52.247Z,1014.34
2018-08-11T03:28:01.154Z,1014.36
2018-08-11T03:29:09.799Z,1014.4
2018-08-11T03:30:18.438Z,1014.41
2018-08-11T03:31:27.356Z,1014.38
2018-08-11T03:32:36.001Z,1014.41
2018-08-11T03:33:44.648Z,1014.42
2018-08-11T03:34:53.294Z,1014.45
2018-08-11T03:36:01.936Z,1014.45
2018-08-11T03:37:10.844Z,1014.49
2018-08-11T03:38:19.750Z,1014.5
2018-08-11T03:39:28.397Z,1014.53
2018-08-11T03:40:37.035Z,1014.54
2018-08-11T03:41:45.678Z,1014.54
2018-08-11T03:42:54.321Z,1014.57
2018-08-11T03:44:02.969Z,1014.58
2018-08-11T03:45:11.864Z,1014.6
2018-08-11T03:46:20.509Z,1014.61
2018-08-11T03:47:29.152Z,1014.59
2018-08-11T03:48:37.805Z,1014.61
2018-08-11T03:49:46.447Z,1014.62
2018-08-11T03:50:55.094Z,1014.64
2018-08-11T03:52:03.729Z,1014.63
2018-08-11T03:53:12.370Z,1014.66
2018-08-11T03:54:21.017Z,1014.65
2018-08-11T03:55:29.662Z,1014.68
2018-08-11T03:56:38.306Z,1014.65
2018-08-11T03:57:46.947Z,1014.63
2018-08-11T03:58:55.591Z,1014.64
2018-08-11T04:00:04.234Z,1014.63
2018-08-11T04:01:12.878Z,1014.59
2018-08-11T04:02:21.776Z,1014.61
2018-08-11T04:03:30.687Z,1014.58
2018-08-11T04:04:39.326Z,1014.59
2018-08-11T04:05:47.977Z,1014.62
2018-08-11T04:06:56.613Z,1014.67
2018-08-11T04:08:05.258Z,1014.71
2018-08-11T04:09:13.901Z,1014.69
2018-08-11T04:10:22.549Z,1014.69
2018-08-11T04:11:31.191Z,1014.71
2018-08-11T04:12:39.832Z,1014.71
2018-08-11T04:13:48.736Z,1014.7
2018-08-11T04:14:57.381Z,1014.71
2018-08-11T04:16:06.029Z,1014.74
2018-08-11T04:17:14.668Z,1014.73
2018-08-11T04:18:23.619Z,1014.69
2018-08-11T04:19:32.266Z,1014.76
2018-08-11T04:20:40.913Z,1014.77
2018-08-11T04:21:49.556Z,1014.79
2018-08-11T04:22:58.201Z,1014.78
2018-08-11T04:24:07.100Z,1014.8
2018-08-11T04:25:15.749Z,1014.79
2018-08-11T04:26:24.389Z,1014.76
2018-08-11T04:27:33.035Z,1014.76
2018-08-11T04:28:41.677Z,1014.7
2018-08-11T04:29:50.320Z,1014.7
2018-08-11T04:30:59.233Z,1014.7
2018-08-11T04:32:07.878Z,1014.74
2018-08-11T04:33:16.787Z,1014.74
2018-08-11T04:34:25.425Z,1014.76
2018-08-11T04:35:34.371Z,1014.78
2018-08-11T04:36:42.978Z,1014.8
2018-08-11T04:37:51.626Z,1014.83
2018-08-11T04:39:00.522Z,1014.86
2018-08-11T04:40:09.179Z,1014.83
2018-08-11T04:41:18.090Z,1014.83
2018-08-11T04:42:26.729Z,1014.84
2018-08-11T04:43:35.365Z,1014.86
2018-08-11T04:44:44.011Z,1014.87
2018-08-11T04:45:52.658Z,1014.89
2018-08-11T04:47:01.303Z,1014.87
2018-08-11T04:48:09.953Z,1014.88
2018-08-11T04:49:18.589Z,1014.87
2018-08-11T04:50:27.237Z,1014.91
2018-08-11T04:51:35.876Z,1014.89
2018-08-11T04:52:44.527Z,1014.94
2018-08-11T04:53:53.164Z,1014.98
2018-08-11T04:55:01.813Z,1014.98
2018-08-11T04:56:10.719Z,1014.97
2018-08-11T04:57:19.377Z,1014.99
2018-08-11T04:58:28.016Z,1014.95
2018-08-11T04:59:36.656Z,1014.97
2018-08-11T05:00:45.316Z,1015
2018-08-11T05:01:53.952Z,1015.02
2018-08-11T05:03:02.855Z,1014.98
2018-08-11T05:04:11.494Z,1015.06
2018-08-11T05:05:20.137Z,1015.06
2018-08-11T05:06:28.778Z,1015.1
2018-08-11T05:07:37.434Z,1015.09
2018-08-11T05:08:46.338Z,1015.12
2018-08-11T05:09:54.987Z,1015.12
2018-08-11T05:11:03.621Z,1015.1
2018-08-11T05:12:12.275Z,1015.18
2018-08-11T05:13:20.909Z,1015.19
2018-08-11T05:14:29.554Z,1015.17
2018-08-11T05:15:38.189Z,1015.22
2018-08-11T05:16:46.843Z,1015.21
2018-08-11T05:17:55.749Z,1015.22
2018-08-11T05:19:04.395Z,1015.19
2018-08-11T05:20:13.027Z,1015.23
2018-08-11T05:21:21.672Z,1015.2
2018-08-11T05:22:30.321Z,1015.26
2018-08-11T05:23:38.967Z,1015.25
2018-08-11T05:24:47.613Z,1015.27
2018-08-11T05:25:56.508Z,1015.25
2018-08-11T05:27:05.158Z,1015.28
2018-08-11T05:28:13.800Z,1015.34
2018-08-11T05:29:22.453Z,1015.37
2018-08-11T05:30:31.088Z,1015.41
2018-08-11T05:31:40.010Z,1015.33
2018-08-11T05:32:48.651Z,1015.31
2018-08-11T05:33:57.290Z,1015.33
2018-08-11T05:35:05.941Z,1015.33
2018-08-11T05:36:14.584Z,1015.32
2018-08-11T05:37:23.232Z,1015.4
2018-08-11T05:38:31.868Z,1015.42
2018-08-11T05:39:40.516Z,1015.4
2018-08-11T05:40:49.436Z,1015.38
2018-08-11T05:41:58.352Z,1015.41
2018-08-11T05:43:06.994Z,1015.45
2018-08-11T05:44:15.631Z,1015.44
2018-08-11T05:45:24.537Z,1015.49
2018-08-11T05:46:33.436Z,1015.45
2018-08-11T05:47:42.092Z,1015.47
2018-08-11T05:48:50.993Z,1015.42
2018-08-11T05:49:59.640Z,1015.42
2018-08-11T05:51:08.281Z,1015.38
2018-08-11T05:52:16.934Z,1015.41
2018-08-11T05:53:25.571Z,1015.43
2018-08-11T05:54:34.481Z,1015.49
2018-08-11T05:55:43.121Z,1015.5
2018-08-11T05:56:51.771Z,1015.52
2018-08-11T05:58:00.413Z,1015.5
2018-08-11T05:59:09.056Z,1015.5
2018-08-11T06:00:17.966Z,1015.57
2018-08-11T06:01:26.607Z,1015.61
2018-08-11T06:02:35.526Z,1015.6
2018-08-11T06:03:44.166Z,1015.66
2018-08-11T06:04:52.813Z,1015.67
2018-08-11T06:06:01.710Z,1015.64
2018-08-11T06:07:10.629Z,1015.63
2018-08-11T06:08:19.269Z,1015.6
2018-08-11T06:09:27.917Z,1015.59
2018-08-11T06:10:36.675Z,1015.61
2018-08-11T06:11:45.205Z,1015.6
2018-08-11T06:12:53.847Z,1015.6
2018-08-11T06:14:02.762Z,1015.61
2018-08-11T06:15:11.398Z,1015.64
2018-08-11T06:16:20.044Z,1015.63
2018-08-11T06:17:28.957Z,1015.65
2018-08-11T06:18:37.604Z,1015.64
2018-08-11T06:19:46.248Z,1015.62
2018-08-11T06:20:54.883Z,1015.65
2018-08-11T06:22:03.838Z,1015.61
2018-08-11T06:23:12.477Z,1015.64
2018-08-11T06:24:21.129Z,1015.63
2018-08-11T06:25:29.780Z,1015.62
2018-08-11T06:26:38.426Z,1015.68
2018-08-11T06:27:47.066Z,1015.72
2018-08-11T06:28:55.721Z,1015.74
2018-08-11T06:30:04.356Z,1015.72
2018-08-11T06:31:13.010Z,1015.77
2018-08-11T06:32:21.934Z,1015.78
2018-08-11T06:33:30.853Z,1015.82
2018-08-11T06:34:39.496Z,1015.78
2018-08-11T06:35:48.396Z,1015.77
2018-08-11T06:36:57.041Z,1015.8
2018-08-11T06:38:05.684Z,1015.72
2018-08-11T06:39:14.333Z,1015.72
2018-08-11T06:40:23.244Z,1015.68
2018-08-11T06:41:32.271Z,1015.68
2018-08-11T06:42:40.910Z,1015.7
2018-08-11T06:43:49.825Z,1015.7
2018-08-11T06:44:58.468Z,1015.68
2018-08-11T06:46:07.109Z,1015.68
2018-08-11T06:47:15.748Z,1015.74
2018-08-11T06:48:24.395Z,1015.71
2018-08-11T06:49:33.038Z,1015.77
2018-08-11T06:50:41.685Z,1015.79
2018-08-11T06:51:50.328Z,1015.78
2018-08-11T06:52:58.976Z,1015.79
2018-08-11T06:54:07.622Z,1015.81
2018-08-11T06:55:16.269Z,1015.8
2018-08-11T06:56:25.183Z,1015.83
2018-08-11T06:57:33.824Z,1015.82
2018-08-11T06:58:42.469Z,1015.85
2018-08-11T06:59:51.116Z,1015.86
2018-08-11T07:00:59.764Z,1015.83
2018-08-11T07:02:08.404Z,1015.87
2018-08-11T07:03:17.313Z,1015.92
2018-08-11T07:04:25.954Z,1015.92
2018-08-11T07:05:34.608Z,1015.95
2018-08-11T07:06:43.314Z,1015.97
2018-08-11T07:07:51.893Z,1015.99
2018-08-11T07:09:00.537Z,1015.98
2018-08-11T07:10:09.184Z,1015.98
2018-08-11T07:11:17.828Z,1015.98
2018-08-11T07:12:26.742Z,1015.95
2018-08-11T07:13:35.904Z,1015.98
2018-08-11T07:14:44.548Z,1015.96
2018-08-11T07:15:53.197Z,1016
2018-08-11T07:17:01.840Z,1016.06
2018-08-11T07:18:10.488Z,1016.03
2018-08-11T07:19:19.128Z,1016.07
2018-08-11T07:20:27.777Z,1016.05
2018-08-11T07:21:36.713Z,1016.03
2018-08-11T07:22:45.620Z,1015.98
2018-08-11T07:23:54.523Z,1016.03
2018-08-11T07:25:03.178Z,1016.05
2018-08-11T07:26:11.816Z,1016.04
2018-08-11T07:27:20.462Z,1016.08
2018-08-11T07:28:29.366Z,1016.04
2018-08-11T07:29:38.017Z,1016.07
2018-08-11T07:30:46.662Z,1016.08
2018-08-11T07:31:55.312Z,1015.97
2018-08-11T07:33:03.959Z,1016.04
2018-08-11T07:34:12.596Z,1016.03
2018-08-11T07:35:21.529Z,1016.01
2018-08-11T07:36:30.315Z,1016.07
2018-08-11T07:37:39.185Z,1016.06
2018-08-11T07:38:47.820Z,1016.08
2018-08-11T07:39:56.470Z,1016.12
2018-08-11T07:41:05.106Z,1016.11
2018-08-11T07:42:13.760Z,1016.09
2018-08-11T07:43:22.443Z,1016.12
2018-08-11T07:44:31.044Z,1016.14
2018-08-11T07:45:39.689Z,1016.13
2018-08-11T07:46:48.347Z,1016.21
2018-08-11T07:47:56.991Z,1016.07
2018-08-11T07:49:05.631Z,1016.11
2018-08-11T07:50:14.301Z,1016.14
2018-08-11T07:51:22.918Z,1016.19
2018-08-11T07:52:31.574Z,1016.17
2018-08-11T07:53:40.215Z,1016.17
2018-08-11T07:54:48.865Z,1016.25
2018-08-11T07:55:57.521Z,1016.21
2018-08-11T07:57:06.166Z,1016.19
2018-08-11T07:58:14.804Z,1016.23
2018-08-11T07:59:23.454Z,1016.26
2018-08-11T08:00:32.090Z,1016.25
2018-08-11T08:01:40.744Z,1016.25
2018-08-11T08:02:49.388Z,1016.24
2018-08-11T08:03:58.035Z,1016.24
2018-08-11T08:05:06.671Z,1016.3
2018-08-11T08:06:15.317Z,1016.26
2018-08-11T08:07:24.230Z,1016.27
2018-08-11T08:08:32.876Z,1016.16
2018-08-11T08:09:41.527Z,1016.28
2018-08-11T08:10:50.168Z,1016.27
2018-08-11T08:11:58.822Z,1016.31
2018-08-11T08:13:07.736Z,1016.34
2018-08-11T08:14:16.919Z,1016.25
2018-08-11T08:15:25.552Z,1016.29
2018-08-11T08:16:34.466Z,1016.37
2018-08-11T08:17:43.109Z,1016.35
2018-08-11T08:18:51.762Z,1016.33
2018-08-11T08:20:00.396Z,1016.33
2018-08-11T08:21:09.305Z,1016.36
2018-08-11T08:22:18.213Z,1016.38
2018-08-11T08:23:27.133Z,1016.36
2018-08-11T08:24:35.776Z,1016.37
2018-08-11T08:25:44.417Z,1016.38
2018-08-11T08:26:53.098Z,1016.4
2018-08-11T08:28:02.361Z,1016.41
2018-08-11T08:29:11.013Z,1016.4
2018-08-11T08:30:19.654Z,1016.46
2018-08-11T08:31:28.302Z,1016.5
2018-08-11T08:32:36.943Z,1016.48
2018-08-11T08:33:45.652Z,1016.5
2018-08-11T08:34:54.241Z,1016.45
2018-08-11T08:36:02.894Z,1016.49
2018-08-11T08:37:11.537Z,1016.46
2018-08-11T08:38:20.189Z,1016.38
2018-08-11T08:39:28.836Z,1016.38
2018-08-11T08:40:37.478Z,1016.38
2018-08-11T08:41:46.125Z,1016.35
2018-08-11T08:42:55.319Z,1016.39
2018-08-11T08:44:03.966Z,1016.43
2018-08-11T08:45:12.879Z,1016.43
2018-08-11T08:46:21.528Z,1016.44
2018-08-11T08:47:30.232Z,1016.47
2018-08-11T08:48:39.231Z,1016.43
2018-08-11T08:49:47.878Z,1016.45
2018-08-11T08:50:56.527Z,1016.45
2018-08-11T08:52:05.167Z,1016.49
2018-08-11T08:53:13.840Z,1016.47
2018-08-11T08:54:22.759Z,1016.56
2018-08-11T08:55:31.410Z,1016.48
2018-08-11T08:56:40.058Z,1016.53
2018-08-11T08:57:48.702Z,1016.47
2018-08-11T08:58:57.380Z,1016.5
2018-08-11T09:00:05.997Z,1016.49
2018-08-11T09:01:14.639Z,1016.48
2018-08-11T09:02:23.287Z,1016.45
2018-08-11T09:03:32.194Z,1016.5
2018-08-11T09:04:40.841Z,1016.48
2018-08-11T09:05:49.490Z,1016.47
2018-08-11T09:06:58.136Z,1016.46
2018-08-11T09:08:06.781Z,1016.53
2018-08-11T09:09:15.421Z,1016.45
2018-08-11T09:10:24.338Z,1016.49
2018-08-11T09:11:32.982Z,1016.52
2018-08-11T09:12:41.629Z,1016.48
2018-08-11T09:13:50.272Z,1016.46
2018-08-11T09:14:58.924Z,1016.38
2018-08-11T09:16:07.619Z,1016.43
2018-08-11T09:17:16.215Z,1016.49
2018-08-11T09:18:24.860Z,1016.43
2018-08-11T09:19:33.571Z,1016.46
2018-08-11T09:20:42.155Z,1016.45
2018-08-11T09:21:50.801Z,1016.43
2018-08-11T09:22:59.454Z,1016.49
2018-08-11T09:24:08.094Z,1016.45
2018-08-11T09:25:16.741Z,1016.43
2018-08-11T09:26:25.390Z,1016.53
2018-08-11T09:27:34.369Z,1016.43
2018-08-11T09:28:43.010Z,1016.49
2018-08-11T09:29:51.650Z,1016.45
2018-08-11T09:31:00.298Z,1016.53
2018-08-11T09:32:08.939Z,1016.57
2018-08-11T09:33:17.590Z,1016.56
2018-08-11T09:34:26.234Z,1016.48
2018-08-11T09:35:34.884Z,1016.54
2018-08-11T09:36:43.526Z,1016.6
2018-08-11T09:37:52.699Z,1016.55
2018-08-11T09:39:01.613Z,1016.6
2018-08-11T09:40:10.265Z,1016.67
2018-08-11T09:41:18.912Z,1016.52
2018-08-11T09:42:27.554Z,1016.62
2018-08-11T09:43:36.204Z,1016.67
2018-08-11T09:44:44.856Z,1016.66
2018-08-11T09:45:53.525Z,1016.65
2018-08-11T09:47:02.432Z,1016.67
2018-08-11T09:48:11.078Z,1016.61
2018-08-11T09:49:19.726Z,1016.64
2018-08-11T09:50:28.643Z,1016.69
2018-08-11T09:51:37.285Z,1016.69
2018-08-11T09:52:46.204Z,1016.59
2018-08-11T09:53:54.844Z,1016.57
2018-08-11T09:55:03.495Z,1016.66
2018-08-11T09:56:12.139Z,1016.59
2018-08-11T09:57:20.786Z,1016.58
2018-08-11T09:58:29.433Z,1016.55
2018-08-11T09:59:38.408Z,1016.55
2018-08-11T10:00:47.059Z,1016.5
2018-08-11T10:01:55.970Z,1016.57
2018-08-11T10:03:04.877Z,1016.52
2018-08-11T10:04:13.524Z,1016.56
2018-08-11T10:05:22.176Z,1016.59
2018-08-11T10:06:30.824Z,1016.59
2018-08-11T10:07:39.478Z,1016.6
2018-08-11T10:08:48.110Z,1016.66
2018-08-11T10:09:56.762Z,1016.58
2018-08-11T10:11:05.408Z,1016.58
2018-08-11T10:12:14.056Z,1016.53
2018-08-11T10:13:22.697Z,1016.51
2018-08-11T10:14:31.349Z,1016.56
2018-08-11T10:15:39.997Z,1016.55
2018-08-11T10:16:48.650Z,1016.56
2018-08-11T10:17:57.301Z,1016.51
2018-08-11T10:19:06.212Z,1016.57
2018-08-11T10:20:14.859Z,1016.48
2018-08-11T10:21:23.503Z,1016.44
2018-08-11T10:22:32.153Z,1016.46
2018-08-11T10:23:40.795Z,1016.42
2018-08-11T10:24:49.707Z,1016.44
2018-08-11T10:25:58.355Z,1016.41
2018-08-11T10:27:07.013Z,1016.44
2018-08-11T10:28:15.921Z,1016.41
2018-08-11T10:29:24.573Z,1016.29
2018-08-11T10:30:33.215Z,1016.48
2018-08-11T10:31:42.136Z,1016.46
2018-08-11T10:32:50.783Z,1016.48
2018-08-11T10:33:59.425Z,1016.51
2018-08-11T10:35:08.073Z,1016.46
2018-08-11T10:36:16.717Z,1016.48
2018-08-11T10:37:25.373Z,1016.43
2018-08-11T10:38:34.019Z,1016.4
2018-08-11T10:39:42.697Z,1016.51
2018-08-11T10:40:51.315Z,1016.43
2018-08-11T10:41:59.972Z,1016.45
2018-08-11T10:43:08.617Z,1016.5
2018-08-11T10:44:17.303Z,1016.49
2018-08-11T10:45:25.909Z,1016.44
2018-08-11T10:46:34.824Z,1016.47
2018-08-11T10:47:43.472Z,1016.49
2018-08-11T10:48:52.124Z,1016.52
2018-08-11T10:50:00.761Z,1016.53
2018-08-11T10:51:09.674Z,1016.49
2018-08-11T10:52:18.326Z,1016.55
2018-08-11T10:53:26.976Z,1016.53
2018-08-11T10:54:35.625Z,1016.56
2018-08-11T10:55:44.269Z,1016.62
2018-08-11T10:56:52.919Z,1016.56
2018-08-11T10:58:01.565Z,1016.58
2018-08-11T10:59:10.225Z,1016.58
2018-08-11T11:00:18.868Z,1016.57
2018-08-11T11:01:27.522Z,1016.59
2018-08-11T11:02:36.163Z,1016.6
2018-08-11T11:03:44.820Z,1016.6
2018-08-11T11:04:53.458Z,1016.61
2018-08-11T11:06:02.113Z,1016.64
2018-08-11T11:07:10.759Z,1016.64
2018-08-11T11:08:19.451Z,1016.65
2018-08-11T11:09:28.759Z,1016.62
2018-08-11T11:10:37.398Z,1016.61
2018-08-11T11:11:46.046Z,1016.65
2018-08-11T11:12:54.691Z,1016.62
2018-08-11T11:14:03.347Z,1016.67
2018-08-11T11:15:11.991Z,1016.63
2018-08-11T11:16:20.645Z,1016.64
2018-08-11T11:17:29.549Z,1016.63
2018-08-11T11:18:38.207Z,1016.62
2018-08-11T11:19:46.850Z,1016.54
2018-08-11T11:20:55.571Z,1016.59
2018-08-11T11:22:04.405Z,1016.57
2018-08-11T11:23:13.062Z,1016.55
2018-08-11T11:24:22.243Z,1016.56
2018-08-11T11:25:30.889Z,1016.6
2018-08-11T11:26:39.547Z,1016.58
2018-08-11T11:27:48.196Z,1016.63
2018-08-11T11:28:56.844Z,1016.65
2018-08-11T11:30:05.493Z,1016.63
2018-08-11T11:31:14.137Z,1016.66
2018-08-11T11:32:22.792Z,1016.64
2018-08-11T11:33:31.441Z,1016.75
2018-08-11T11:34:40.095Z,1016.69
2018-08-11T11:35:49.000Z,1016.73
2018-08-11T11:36:57.652Z,1016.75
2018-08-11T11:38:06.403Z,1016.66
2018-08-11T11:39:14.952Z,1016.67
2018-08-11T11:40:23.590Z,1016.59
2018-08-11T11:41:32.244Z,1016.6
2018-08-11T11:42:40.892Z,1016.65
2018-08-11T11:43:49.542Z,1016.64
2018-08-11T11:44:58.447Z,1016.61
2018-08-11T11:46:07.366Z,1016.59
2018-08-11T11:47:16.015Z,1016.63
2018-08-11T11:48:24.669Z,1016.53
2018-08-11T11:49:33.578Z,1016.63
2018-08-11T11:50:42.223Z,1016.67
2018-08-11T11:51:50.871Z,1016.69
2018-08-11T11:52:59.519Z,1016.7
2018-08-11T11:54:08.173Z,1016.67
2018-08-11T11:55:16.818Z,1016.67
2018-08-11T11:56:25.475Z,1016.69
2018-08-11T11:57:34.116Z,1016.71
2018-08-11T11:58:43.035Z,1016.7
2018-08-11T11:59:51.737Z,1016.64
2018-08-11T12:01:00.333Z,1016.67
2018-08-11T12:02:09.026Z,1016.63
2018-08-11T12:03:17.945Z,1016.62
2018-08-11T12:04:26.590Z,1016.62
2018-08-11T12:05:35.243Z,1016.66
2018-08-11T12:06:43.889Z,1016.61
2018-08-11T12:07:52.538Z,1016.65
2018-08-11T12:09:01.195Z,1016.61
2018-08-11T12:10:09.841Z,1016.65
2018-08-11T12:11:18.490Z,1016.68
2018-08-11T12:12:27.133Z,1016.69
2018-08-11T12:13:35.786Z,1016.73
2018-08-11T12:14:44.701Z,1016.71
2018-08-11T12:15:53.350Z,1016.71
2018-08-11T12:17:01.994Z,1016.7
2018-08-11T12:18:10.648Z,1016.7
2018-08-11T12:19:19.315Z,1016.66
2018-08-11T12:20:27.943Z,1016.65
2018-08-11T12:21:36.592Z,1016.57
2018-08-11T12:22:45.243Z,1016.6
2018-08-11T12:23:54.158Z,1016.62
2018-08-11T12:25:02.811Z,1016.54
2018-08-11T12:26:11.465Z,1016.61
2018-08-11T12:27:20.106Z,1016.58
2018-08-11T12:28:28.761Z,1016.53
2018-08-11T12:29:37.407Z,1016.53
2018-08-11T12:30:46.062Z,1016.51
2018-08-11T12:31:54.968Z,1016.49
2018-08-11T12:33:03.886Z,1016.53
2018-08-11T12:34:12.528Z,1016.58
2018-08-11T12:35:21.453Z,1016.45
2018-08-11T12:36:30.623Z,1016.46
2018-08-11T12:37:39.276Z,1016.52
2018-08-11T12:38:47.922Z,1016.51
2018-08-11T12:39:56.578Z,1016.6
2018-08-11T12:41:05.223Z,1016.62
2018-08-11T12:42:13.866Z,1016.55
2018-08-11T12:43:22.512Z,1016.53
2018-08-11T12:44:31.159Z,1016.55
2018-08-11T12:45:39.819Z,1016.55
2018-08-11T12:46:48.465Z,1016.54
2018-08-11T12:47:57.384Z,1016.58
2018-08-11T12:49:06.024Z,1016.56
2018-08-11T12:50:14.680Z,1016.5
2018-08-11T12:51:23.323Z,1016.55
2018-08-11T12:52:31.983Z,1016.47
2018-08-11T12:53:40.890Z,1016.5
2018-08-11T12:54:49.555Z,1016.47
2018-08-11T12:55:58.202Z,1016.45
2018-08-11T12:57:06.853Z,1016.43
2018-08-11T12:58:15.492Z,1016.48
2018-08-11T12:59:24.138Z,1016.43
2018-08-11T13:00:32.794Z,1016.43
2018-08-11T13:01:41.501Z,1016.45
2018-08-11T13:02:50.101Z,1016.41
2018-08-11T13:03:58.743Z,1016.45
2018-08-11T13:05:07.397Z,1016.38
2018-08-11T13:06:16.309Z,1016.4
2018-08-11T13:07:24.968Z,1016.36
2018-08-11T13:08:33.606Z,1016.36
2018-08-11T13:09:42.262Z,1016.31
2018-08-11T13:10:50.907Z,1016.37
2018-08-11T13:11:59.565Z,1016.37
2018-08-11T13:13:08.216Z,1016.32
2018-08-11T13:14:16.868Z,1016.33
2018-08-11T13:15:25.519Z,1016.33
2018-08-11T13:16:34.449Z,1016.35
2018-08-11T13:17:43.096Z,1016.31
2018-08-11T13:18:51.739Z,1016.38
2018-08-11T13:20:00.388Z,1016.37
2018-08-11T13:21:09.036Z,1016.31
2018-08-11T13:22:17.695Z,1016.4
2018-08-11T13:23:26.343Z,1016.32
2018-08-11T13:24:35.249Z,1016.31
2018-08-11T13:25:43.912Z,1016.27
2018-08-11T13:26:52.821Z,1016.27
2018-08-11T13:28:01.472Z,1016.31
2018-08-11T13:29:10.380Z,1016.36
2018-08-11T13:30:19.038Z,1016.33
2018-08-11T13:31:27.681Z,1016.29
2018-08-11T13:32:36.334Z,1016.33
2018-08-11T13:33:44.987Z,1016.39
2018-08-11T13:34:53.645Z,1016.38
2018-08-11T13:36:02.295Z,1016.42
2018-08-11T13:37:10.944Z,1016.32
2018-08-11T13:38:19.594Z,1016.37
2018-08-11T13:39:28.499Z,1016.37
2018-08-11T13:40:37.160Z,1016.39
2018-08-11T13:41:46.070Z,1016.39
2018-08-11T13:42:54.723Z,1016.32
2018-08-11T13:44:03.364Z,1016.3
2018-08-11T13:45:12.025Z,1016.31
2018-08-11T13:46:20.670Z,1016.26
2018-08-11T13:47:29.325Z,1016.28
2018-08-11T13:48:37.965Z,1016.3
2018-08-11T13:49:46.655Z,1016.26
2018-08-11T13:50:55.273Z,1016.24
2018-08-11T13:52:04.189Z,1016.26
2018-08-11T13:53:13.094Z,1016.27
2018-08-11T13:54:21.786Z,1016.22